sensor_id;sensor_type;location;lat;lon;timestamp;P1;durP1;ratioP1;P2;durP2;ratioP2
18711;SDS011;9485;49.386;8.674;2023-06-19T00:02:31;5.35;;;4.95;;
18711;SDS011;9485;49.386;8.674;2023-06-19T00:07:52;5.05;;;4.65;;
18711;SDS011;9485;49.386;8.674;2023-06-19T00:13:12;5.47;;;5.00;;
18711;SDS011;9485;49.386;8.674;2023-06-19T00:18:34;6.10;;;5.60;;
18711;SDS011;9485;49.386;8.674;2023-06-19T00:23:58;5.50;;;5.00;;
18711;SDS011;9485;49.386;8.674;2023-06-19T00:29:19;5.57;;;5.07;;
18711;SDS011;9485;49.386;8.674;2023-06-19T00:34:41;5.88;;;4.90;;
18711;SDS011;9485;49.386;8.674;2023-06-19T00:40:02;5.57;;;5.07;;
18711;SDS011;9485;49.386;8.674;2023-06-19T00:45:24;5.57;;;5.07;;
18711;SDS011;9485;49.386;8.674;2023-06-19T00:50:47;7.45;;;5.72;;
18711;SDS011;9485;49.386;8.674;2023-06-19T00:56:09;5.65;;;5.15;;
18711;SDS011;9485;49.386;8.674;2023-06-19T01:01:30;6.20;;;5.60;;
18711;SDS011;9485;49.386;8.674;2023-06-19T01:06:54;6.10;;;5.50;;
18711;SDS011;9485;49.386;8.674;2023-06-19T01:12:23;5.35;;;4.85;;
18711;SDS011;9485;49.386;8.674;2023-06-19T01:17:53;5.75;;;5.03;;
18711;SDS011;9485;49.386;8.674;2023-06-19T01:23:17;6.57;;;5.53;;
18711;SDS011;9485;49.386;8.674;2023-06-19T01:28:38;5.78;;;5.18;;
18711;SDS011;9485;49.386;8.674;2023-06-19T01:34:01;5.65;;;5.15;;
18711;SDS011;9485;49.386;8.674;2023-06-19T01:39:29;5.53;;;5.03;;
18711;SDS011;9485;49.386;8.674;2023-06-19T01:44:51;5.88;;;5.38;;
18711;SDS011;9485;49.386;8.674;2023-06-19T01:50:13;5.65;;;5.15;;
18711;SDS011;9485;49.386;8.674;2023-06-19T01:55:36;5.47;;;4.93;;
18711;SDS011;9485;49.386;8.674;2023-06-19T02:00:57;5.47;;;4.97;;
18711;SDS011;9485;49.386;8.674;2023-06-19T02:06:17;5.78;;;5.28;;
18711;SDS011;9485;49.386;8.674;2023-06-19T02:11:41;5.05;;;4.57;;
18711;SDS011;9485;49.386;8.674;2023-06-19T02:17:01;4.60;;;4.15;;
18711;SDS011;9485;49.386;8.674;2023-06-19T02:22:23;4.28;;;3.88;;
18711;SDS011;9485;49.386;8.674;2023-06-19T02:27:44;4.43;;;3.67;;
18711;SDS011;9485;49.386;8.674;2023-06-19T02:33:06;5.22;;;4.50;;
18711;SDS011;9485;49.386;8.674;2023-06-19T02:38:27;4.45;;;3.97;;
18711;SDS011;9485;49.386;8.674;2023-06-19T02:43:50;4.30;;;3.90;;
18711;SDS011;9485;49.386;8.674;2023-06-19T02:49:11;4.55;;;3.78;;
18711;SDS011;9485;49.386;8.674;2023-06-19T02:54:31;4.10;;;3.80;;
18711;SDS011;9485;49.386;8.674;2023-06-19T02:59:53;3.05;;;2.78;;
18711;SDS011;9485;49.386;8.674;2023-06-19T03:05:14;3.15;;;2.85;;
18711;SDS011;9485;49.386;8.674;2023-06-19T03:10:34;2.80;;;2.60;;
18711;SDS011;9485;49.386;8.674;2023-06-19T03:15:57;2.80;;;2.60;;
18711;SDS011;9485;49.386;8.674;2023-06-19T03:21:18;2.08;;;1.88;;
18711;SDS011;9485;49.386;8.674;2023-06-19T03:26:40;2.58;;;2.13;;
18711;SDS011;9485;49.386;8.674;2023-06-19T03:32:02;2.20;;;1.92;;
18711;SDS011;9485;49.386;8.674;2023-06-19T03:37:25;1.85;;;1.75;;
18711;SDS011;9485;49.386;8.674;2023-06-19T03:42:46;2.10;;;1.90;;
18711;SDS011;9485;49.386;8.674;2023-06-19T03:48:10;1.83;;;1.73;;
18711;SDS011;9485;49.386;8.674;2023-06-19T03:53:30;2.53;;;1.83;;
18711;SDS011;9485;49.386;8.674;2023-06-19T03:58:51;1.83;;;1.73;;
18711;SDS011;9485;49.386;8.674;2023-06-19T04:04:14;2.60;;;1.92;;
18711;SDS011;9485;49.386;8.674;2023-06-19T04:09:35;2.10;;;1.90;;
18711;SDS011;9485;49.386;8.674;2023-06-19T04:14:57;1.70;;;1.60;;
18711;SDS011;9485;49.386;8.674;2023-06-19T04:20:19;3.10;;;1.90;;
18711;SDS011;9485;49.386;8.674;2023-06-19T04:25:40;2.17;;;1.98;;
18711;SDS011;9485;49.386;8.674;2023-06-19T04:31:01;2.20;;;2.00;;
18711;SDS011;9485;49.386;8.674;2023-06-19T04:36:24;3.05;;;2.00;;
18711;SDS011;9485;49.386;8.674;2023-06-19T04:41:44;2.28;;;2.08;;
18711;SDS011;9485;49.386;8.674;2023-06-19T04:47:05;3.00;;;2.10;;
18711;SDS011;9485;49.386;8.674;2023-06-19T04:52:28;2.40;;;2.20;;
18711;SDS011;9485;49.386;8.674;2023-06-19T04:57:51;2.83;;;2.22;;
18711;SDS011;9485;49.386;8.674;2023-06-19T05:03:14;2.65;;;2.17;;
18711;SDS011;9485;49.386;8.674;2023-06-19T05:08:37;3.67;;;2.38;;
18711;SDS011;9485;49.386;8.674;2023-06-19T05:13:59;2.25;;;2.05;;
18711;SDS011;9485;49.386;8.674;2023-06-19T05:19:20;2.35;;;2.15;;
18711;SDS011;9485;49.386;8.674;2023-06-19T05:24:43;2.63;;;2.40;;
18711;SDS011;9485;49.386;8.674;2023-06-19T05:30:05;2.22;;;2.03;;
18711;SDS011;9485;49.386;8.674;2023-06-19T05:35:27;2.50;;;2.30;;
18711;SDS011;9485;49.386;8.674;2023-06-19T05:40:52;2.55;;;2.33;;
18711;SDS011;9485;49.386;8.674;2023-06-19T05:46:13;4.63;;;2.40;;
18711;SDS011;9485;49.386;8.674;2023-06-19T05:51:34;2.55;;;2.35;;
18711;SDS011;9485;49.386;8.674;2023-06-19T05:56:56;2.40;;;2.20;;
18711;SDS011;9485;49.386;8.674;2023-06-19T06:02:17;2.33;;;2.13;;
18711;SDS011;9485;49.386;8.674;2023-06-19T06:07:38;2.72;;;2.50;;
18711;SDS011;9485;49.386;8.674;2023-06-19T06:13:00;2.13;;;1.98;;
18711;SDS011;9485;49.386;8.674;2023-06-19T06:18:21;2.58;;;2.20;;
18711;SDS011;9485;49.386;8.674;2023-06-19T06:23:42;2.80;;;2.60;;
18711;SDS011;9485;49.386;8.674;2023-06-19T06:29:05;2.75;;;2.45;;
18711;SDS011;9485;49.386;8.674;2023-06-19T06:34:25;2.90;;;2.70;;
18711;SDS011;9485;49.386;8.674;2023-06-19T06:39:46;2.60;;;2.40;;
18711;SDS011;9485;49.386;8.674;2023-06-19T06:45:09;3.17;;;2.75;;
18711;SDS011;9485;49.386;8.674;2023-06-19T06:50:30;2.95;;;2.30;;
18711;SDS011;9485;49.386;8.674;2023-06-19T06:55:51;4.28;;;2.47;;
18711;SDS011;9485;49.386;8.674;2023-06-19T07:01:13;3.30;;;3.00;;
18711;SDS011;9485;49.386;8.674;2023-06-19T07:06:34;3.22;;;2.92;;
18711;SDS011;9485;49.386;8.674;2023-06-19T07:11:55;3.13;;;2.72;;
18711;SDS011;9485;49.386;8.674;2023-06-19T07:17:18;3.67;;;2.88;;
18711;SDS011;9485;49.386;8.674;2023-06-19T07:22:38;4.15;;;2.80;;
18711;SDS011;9485;49.386;8.674;2023-06-19T07:28:00;2.97;;;2.72;;
18711;SDS011;9485;49.386;8.674;2023-06-19T07:33:24;3.13;;;2.70;;
18711;SDS011;9485;49.386;8.674;2023-06-19T07:38:45;3.22;;;2.88;;
18711;SDS011;9485;49.386;8.674;2023-06-19T07:44:06;3.17;;;2.88;;
18711;SDS011;9485;49.386;8.674;2023-06-19T07:49:29;3.38;;;3.08;;
18711;SDS011;9485;49.386;8.674;2023-06-19T07:54:51;4.40;;;2.97;;
18711;SDS011;9485;49.386;8.674;2023-06-19T08:00:13;3.28;;;3.03;;
18711;SDS011;9485;49.386;8.674;2023-06-19T08:05:36;3.65;;;2.90;;
18711;SDS011;9485;49.386;8.674;2023-06-19T08:10:57;2.97;;;2.70;;
18711;SDS011;9485;49.386;8.674;2023-06-19T08:16:19;3.25;;;2.92;;
18711;SDS011;9485;49.386;8.674;2023-06-19T08:21:41;3.40;;;3.10;;
18711;SDS011;9485;49.386;8.674;2023-06-19T08:27:01;3.40;;;3.10;;
18711;SDS011;9485;49.386;8.674;2023-06-19T08:32:23;3.65;;;3.33;;
18711;SDS011;9485;49.386;8.674;2023-06-19T08:37:45;3.35;;;2.90;;
18711;SDS011;9485;49.386;8.674;2023-06-19T08:43:06;3.30;;;3.00;;
18711;SDS011;9485;49.386;8.674;2023-06-19T08:48:27;3.58;;;3.28;;
18711;SDS011;9485;49.386;8.674;2023-06-19T08:53:54;3.42;;;3.15;;
18711;SDS011;9485;49.386;8.674;2023-06-19T08:59:19;3.35;;;3.05;;
18711;SDS011;9485;49.386;8.674;2023-06-19T09:04:41;3.33;;;3.05;;
18711;SDS011;9485;49.386;8.674;2023-06-19T09:10:12;3.60;;;3.13;;
18711;SDS011;9485;49.386;8.674;2023-06-19T09:15:38;3.40;;;3.10;;
18711;SDS011;9485;49.386;8.674;2023-06-19T09:20:59;4.55;;;3.28;;
18711;SDS011;9485;49.386;8.674;2023-06-19T09:26:22;4.05;;;3.42;;
18711;SDS011;9485;49.386;8.674;2023-06-19T09:31:43;4.13;;;3.60;;
18711;SDS011;9485;49.386;8.674;2023-06-19T09:37:04;3.80;;;3.50;;
18711;SDS011;9485;49.386;8.674;2023-06-19T09:42:29;4.13;;;3.70;;
18711;SDS011;9485;49.386;8.674;2023-06-19T09:47:52;3.97;;;3.67;;
18711;SDS011;9485;49.386;8.674;2023-06-19T09:53:14;4.00;;;3.60;;
18711;SDS011;9485;49.386;8.674;2023-06-19T09:58:37;4.00;;;3.60;;
18711;SDS011;9485;49.386;8.674;2023-06-19T10:04:04;3.83;;;3.53;;
18711;SDS011;9485;49.386;8.674;2023-06-19T10:09:32;3.63;;;3.33;;
18711;SDS011;9485;49.386;8.674;2023-06-19T10:14:55;3.63;;;3.33;;
18711;SDS011;9485;49.386;8.674;2023-06-19T10:20:22;3.90;;;3.60;;
18711;SDS011;9485;49.386;8.674;2023-06-19T10:25:47;3.67;;;3.38;;
18711;SDS011;9485;49.386;8.674;2023-06-19T10:31:16;3.97;;;3.45;;
18711;SDS011;9485;49.386;8.674;2023-06-19T10:36:38;3.75;;;3.45;;
18711;SDS011;9485;49.386;8.674;2023-06-19T10:41:59;3.63;;;3.33;;
18711;SDS011;9485;49.386;8.674;2023-06-19T10:47:22;3.50;;;3.20;;
18711;SDS011;9485;49.386;8.674;2023-06-19T10:52:44;3.17;;;2.92;;
18711;SDS011;9485;49.386;8.674;2023-06-19T10:58:07;3.38;;;3.08;;
18711;SDS011;9485;49.386;8.674;2023-06-19T11:03:31;3.50;;;3.20;;
18711;SDS011;9485;49.386;8.674;2023-06-19T11:08:54;3.60;;;3.30;;
18711;SDS011;9485;49.386;8.674;2023-06-19T11:14:16;4.05;;;3.60;;
18711;SDS011;9485;49.386;8.674;2023-06-19T11:19:39;3.50;;;3.20;;
18711;SDS011;9485;49.386;8.674;2023-06-19T11:25:02;2.78;;;2.58;;
18711;SDS011;9485;49.386;8.674;2023-06-19T11:30:30;3.38;;;3.08;;
18711;SDS011;9485;49.386;8.674;2023-06-19T11:35:54;3.40;;;3.08;;
18711;SDS011;9485;49.386;8.674;2023-06-19T11:41:29;3.38;;;2.92;;
18711;SDS011;9485;49.386;8.674;2023-06-19T11:52:41;3.28;;;2.97;;
18711;SDS011;9485;49.386;8.674;2023-06-19T11:58:05;2.72;;;2.53;;
18711;SDS011;9485;49.386;8.674;2023-06-19T12:03:28;3.13;;;2.83;;
18711;SDS011;9485;49.386;8.674;2023-06-19T12:08:50;3.72;;;2.80;;
18711;SDS011;9485;49.386;8.674;2023-06-19T12:14:13;2.97;;;2.67;;
18711;SDS011;9485;49.386;8.674;2023-06-19T12:19:35;5.18;;;2.25;;
18711;SDS011;9485;49.386;8.674;2023-06-19T12:24:58;3.13;;;2.50;;
18711;SDS011;9485;49.386;8.674;2023-06-19T12:30:20;3.28;;;3.05;;
18711;SDS011;9485;49.386;8.674;2023-06-19T12:35:44;3.03;;;2.72;;
18711;SDS011;9485;49.386;8.674;2023-06-19T12:41:07;3.42;;;3.17;;
18711;SDS011;9485;49.386;8.674;2023-06-19T12:46:29;2.85;;;2.65;;
18711;SDS011;9485;49.386;8.674;2023-06-19T12:51:49;2.90;;;2.70;;
18711;SDS011;9485;49.386;8.674;2023-06-19T12:57:13;3.20;;;2.90;;
18711;SDS011;9485;49.386;8.674;2023-06-19T13:02:34;2.97;;;2.78;;
18711;SDS011;9485;49.386;8.674;2023-06-19T13:07:58;2.92;;;2.72;;
18711;SDS011;9485;49.386;8.674;2023-06-19T13:13:20;5.30;;;3.72;;
18711;SDS011;9485;49.386;8.674;2023-06-19T13:18:41;3.00;;;2.80;;
18711;SDS011;9485;49.386;8.674;2023-06-19T13:24:02;3.33;;;3.03;;
18711;SDS011;9485;49.386;8.674;2023-06-19T13:29:24;3.13;;;2.85;;
18711;SDS011;9485;49.386;8.674;2023-06-19T13:34:45;3.20;;;2.90;;
18711;SDS011;9485;49.386;8.674;2023-06-19T13:40:06;2.80;;;2.60;;
18711;SDS011;9485;49.386;8.674;2023-06-19T13:45:29;3.00;;;2.80;;
18711;SDS011;9485;49.386;8.674;2023-06-19T13:50:50;3.60;;;2.63;;
18711;SDS011;9485;49.386;8.674;2023-06-19T13:56:11;2.78;;;2.58;;
18711;SDS011;9485;49.386;8.674;2023-06-19T14:01:33;3.35;;;3.10;;
18711;SDS011;9485;49.386;8.674;2023-06-19T14:06:54;3.35;;;2.72;;
18711;SDS011;9485;49.386;8.674;2023-06-19T14:12:14;3.90;;;3.10;;
18711;SDS011;9485;49.386;8.674;2023-06-19T14:17:36;3.05;;;2.78;;
18711;SDS011;9485;49.386;8.674;2023-06-19T14:22:59;4.05;;;2.72;;
18711;SDS011;9485;49.386;8.674;2023-06-19T14:28:20;5.82;;;3.00;;
18711;SDS011;9485;49.386;8.674;2023-06-19T14:33:42;3.30;;;3.00;;
18711;SDS011;9485;49.386;8.674;2023-06-19T14:39:03;3.15;;;2.88;;
18711;SDS011;9485;49.386;8.674;2023-06-19T14:44:24;3.33;;;3.03;;
18711;SDS011;9485;49.386;8.674;2023-06-19T14:49:46;3.40;;;3.10;;
18711;SDS011;9485;49.386;8.674;2023-06-19T14:55:09;3.25;;;2.95;;
18711;SDS011;9485;49.386;8.674;2023-06-19T15:00:31;3.30;;;3.00;;
18711;SDS011;9485;49.386;8.674;2023-06-19T15:05:54;2.97;;;2.78;;
18711;SDS011;9485;49.386;8.674;2023-06-19T15:11:15;3.20;;;3.00;;
18711;SDS011;9485;49.386;8.674;2023-06-19T15:16:36;4.63;;;3.65;;
18711;SDS011;9485;49.386;8.674;2023-06-19T15:21:59;3.45;;;3.15;;
18711;SDS011;9485;49.386;8.674;2023-06-19T15:27:20;3.55;;;3.28;;
18711;SDS011;9485;49.386;8.674;2023-06-19T15:32:41;3.70;;;2.67;;
18711;SDS011;9485;49.386;8.674;2023-06-19T15:38:03;3.15;;;2.95;;
18711;SDS011;9485;49.386;8.674;2023-06-19T15:43:24;3.10;;;2.90;;
18711;SDS011;9485;49.386;8.674;2023-06-19T15:48:47;4.35;;;3.10;;
18711;SDS011;9485;49.386;8.674;2023-06-19T15:54:10;3.85;;;2.95;;
18711;SDS011;9485;49.386;8.674;2023-06-19T15:59:31;3.92;;;3.25;;
18711;SDS011;9485;49.386;8.674;2023-06-19T16:04:52;3.22;;;2.97;;
18711;SDS011;9485;49.386;8.674;2023-06-19T16:10:14;3.25;;;3.05;;
18711;SDS011;9485;49.386;8.674;2023-06-19T16:15:36;3.40;;;3.20;;
18711;SDS011;9485;49.386;8.674;2023-06-19T16:20:57;3.58;;;3.28;;
18711;SDS011;9485;49.386;8.674;2023-06-19T16:26:19;3.72;;;3.22;;
18711;SDS011;9485;49.386;8.674;2023-06-19T16:31:40;4.10;;;3.42;;
18711;SDS011;9485;49.386;8.674;2023-06-19T16:37:01;3.10;;;2.90;;
18711;SDS011;9485;49.386;8.674;2023-06-19T16:42:24;3.17;;;2.97;;
18711;SDS011;9485;49.386;8.674;2023-06-19T16:47:45;3.63;;;3.33;;
18711;SDS011;9485;49.386;8.674;2023-06-19T16:53:06;3.53;;;3.10;;
18711;SDS011;9485;49.386;8.674;2023-06-19T16:58:28;3.47;;;3.17;;
18711;SDS011;9485;49.386;8.674;2023-06-19T17:03:49;3.28;;;2.97;;
18711;SDS011;9485;49.386;8.674;2023-06-19T17:09:09;3.15;;;2.85;;
18711;SDS011;9485;49.386;8.674;2023-06-19T17:14:32;3.40;;;3.10;;
18711;SDS011;9485;49.386;8.674;2023-06-19T17:19:52;4.88;;;3.55;;
18711;SDS011;9485;49.386;8.674;2023-06-19T17:25:13;3.65;;;3.35;;
18711;SDS011;9485;49.386;8.674;2023-06-19T17:30:35;3.47;;;3.17;;
18711;SDS011;9485;49.386;8.674;2023-06-19T17:35:59;3.35;;;3.03;;
18711;SDS011;9485;49.386;8.674;2023-06-19T17:41:21;3.40;;;3.10;;
18711;SDS011;9485;49.386;8.674;2023-06-19T17:46:44;3.10;;;2.90;;
18711;SDS011;9485;49.386;8.674;2023-06-19T17:52:05;3.60;;;3.25;;
18711;SDS011;9485;49.386;8.674;2023-06-19T17:57:26;3.47;;;3.17;;
18711;SDS011;9485;49.386;8.674;2023-06-19T18:02:48;3.47;;;3.17;;
18711;SDS011;9485;49.386;8.674;2023-06-19T18:08:09;4.68;;;3.15;;
18711;SDS011;9485;49.386;8.674;2023-06-19T18:13:30;3.70;;;3.40;;
18711;SDS011;9485;49.386;8.674;2023-06-19T18:18:53;3.90;;;3.30;;
18711;SDS011;9485;49.386;8.674;2023-06-19T18:24:14;3.85;;;3.55;;
18711;SDS011;9485;49.386;8.674;2023-06-19T18:29:35;3.72;;;3.42;;
18711;SDS011;9485;49.386;8.674;2023-06-19T18:34:57;3.90;;;3.60;;
18711;SDS011;9485;49.386;8.674;2023-06-19T18:40:18;3.50;;;3.20;;
18711;SDS011;9485;49.386;8.674;2023-06-19T18:45:39;3.78;;;3.40;;
18711;SDS011;9485;49.386;8.674;2023-06-19T18:51:01;5.60;;;4.50;;
18711;SDS011;9485;49.386;8.674;2023-06-19T18:56:22;3.42;;;3.13;;
18711;SDS011;9485;49.386;8.674;2023-06-19T19:01:43;5.75;;;4.28;;
18711;SDS011;9485;49.386;8.674;2023-06-19T19:07:05;5.15;;;3.63;;
18711;SDS011;9485;49.386;8.674;2023-06-19T19:12:27;3.65;;;3.33;;
18711;SDS011;9485;49.386;8.674;2023-06-19T19:17:48;4.15;;;3.78;;
18711;SDS011;9485;49.386;8.674;2023-06-19T19:23:11;33.10;;;19.75;;
18711;SDS011;9485;49.386;8.674;2023-06-19T19:28:32;43.67;;;25.73;;
18711;SDS011;9485;49.386;8.674;2023-06-19T19:33:52;27.67;;;16.75;;
18711;SDS011;9485;49.386;8.674;2023-06-19T19:39:15;21.00;;;13.68;;
18711;SDS011;9485;49.386;8.674;2023-06-19T19:44:36;9.45;;;7.10;;
18711;SDS011;9485;49.386;8.674;2023-06-19T19:49:56;6.13;;;4.97;;
18711;SDS011;9485;49.386;8.674;2023-06-19T19:55:18;5.32;;;4.68;;
18711;SDS011;9485;49.386;8.674;2023-06-19T20:00:39;5.57;;;4.43;;
18711;SDS011;9485;49.386;8.674;2023-06-19T20:06:03;4.68;;;4.22;;
18711;SDS011;9485;49.386;8.674;2023-06-19T20:11:25;6.53;;;4.35;;
18711;SDS011;9485;49.386;8.674;2023-06-19T20:16:46;24.52;;;14.55;;
18711;SDS011;9485;49.386;8.674;2023-06-19T20:22:07;44.22;;;26.05;;
18711;SDS011;9485;49.386;8.674;2023-06-19T20:27:30;33.60;;;20.02;;
18711;SDS011;9485;49.386;8.674;2023-06-19T20:32:50;19.02;;;13.55;;
18711;SDS011;9485;49.386;8.674;2023-06-19T20:38:11;24.17;;;14.57;;
18711;SDS011;9485;49.386;8.674;2023-06-19T20:43:34;46.47;;;28.75;;
18711;SDS011;9485;49.386;8.674;2023-06-19T20:48:54;52.58;;;31.92;;
18711;SDS011;9485;49.386;8.674;2023-06-19T20:54:15;29.00;;;18.98;;
18711;SDS011;9485;49.386;8.674;2023-06-19T20:59:38;18.80;;;13.02;;
18711;SDS011;9485;49.386;8.674;2023-06-19T21:04:59;29.15;;;17.90;;
18711;SDS011;9485;49.386;8.674;2023-06-19T21:10:20;34.55;;;21.15;;
18711;SDS011;9485;49.386;8.674;2023-06-19T21:15:43;34.25;;;21.45;;
18711;SDS011;9485;49.386;8.674;2023-06-19T21:21:04;22.08;;;14.10;;
18711;SDS011;9485;49.386;8.674;2023-06-19T21:26:25;12.52;;;9.88;;
18711;SDS011;9485;49.386;8.674;2023-06-19T21:31:46;7.88;;;6.65;;
18711;SDS011;9485;49.386;8.674;2023-06-19T21:37:07;5.68;;;5.18;;
18711;SDS011;9485;49.386;8.674;2023-06-19T21:42:28;6.57;;;5.65;;
18711;SDS011;9485;49.386;8.674;2023-06-19T21:47:51;45.75;;;33.10;;
18711;SDS011;9485;49.386;8.674;2023-06-19T21:53:11;43.60;;;30.38;;
18711;SDS011;9485;49.386;8.674;2023-06-19T21:58:32;19.23;;;15.43;;
18711;SDS011;9485;49.386;8.674;2023-06-19T22:03:54;11.38;;;9.13;;
18711;SDS011;9485;49.386;8.674;2023-06-19T22:09:14;7.47;;;6.35;;
18711;SDS011;9485;49.386;8.674;2023-06-19T22:14:35;5.28;;;4.78;;
18711;SDS011;9485;49.386;8.674;2023-06-19T22:20:00;4.45;;;4.05;;
18711;SDS011;9485;49.386;8.674;2023-06-19T22:25:22;4.28;;;3.95;;
18711;SDS011;9485;49.386;8.674;2023-06-19T22:30:42;5.63;;;5.05;;
18711;SDS011;9485;49.386;8.674;2023-06-19T22:36:05;5.40;;;4.43;;
18711;SDS011;9485;49.386;8.674;2023-06-19T22:41:28;4.32;;;3.92;;
18711;SDS011;9485;49.386;8.674;2023-06-19T22:46:49;4.07;;;3.78;;
18711;SDS011;9485;49.386;8.674;2023-06-19T22:52:11;3.60;;;3.30;;
18711;SDS011;9485;49.386;8.674;2023-06-19T22:57:32;4.78;;;4.38;;
18711;SDS011;9485;49.386;8.674;2023-06-19T23:02:53;5.78;;;5.07;;
18711;SDS011;9485;49.386;8.674;2023-06-19T23:08:15;4.28;;;3.88;;
18711;SDS011;9485;49.386;8.674;2023-06-19T23:13:37;4.45;;;4.07;;
18711;SDS011;9485;49.386;8.674;2023-06-19T23:18:58;4.57;;;4.18;;
18711;SDS011;9485;49.386;8.674;2023-06-19T23:24:20;6.88;;;6.13;;
18711;SDS011;9485;49.386;8.674;2023-06-19T23:29:41;5.68;;;5.00;;
18711;SDS011;9485;49.386;8.674;2023-06-19T23:35:02;5.07;;;4.57;;
18711;SDS011;9485;49.386;8.674;2023-06-19T23:40:25;4.80;;;4.38;;
18711;SDS011;9485;49.386;8.674;2023-06-19T23:45:46;6.47;;;5.68;;
18711;SDS011;9485;49.386;8.674;2023-06-19T23:51:07;6.53;;;5.78;;
18711;SDS011;9485;49.386;8.674;2023-06-19T23:56:29;6.88;;;6.20;;
